createdAt,value
2018-12-22T00:01:39.572Z,98064.11
2018-12-22T00:03:50.406Z,98059.38
2018-12-22T00:06:01.252Z,98059.97
2018-12-22T00:08:12.140Z,98058.47
2018-12-22T00:10:23.005Z,98060.80
2018-12-22T00:12:33.828Z,98059.70
2018-12-22T00:14:44.654Z,98069.16
2018-12-22T00:16:55.572Z,98073.52
2018-12-22T00:19:06.460Z,98079.30
2018-12-22T00:21:17.346Z,98075.77
2018-12-22T00:23:28.197Z,98077.23
2018-12-22T00:25:39.048Z,98074.91
2018-12-22T00:27:50.927Z,98066.36
2018-12-22T00:30:03.909Z,98061.98
2018-12-22T00:32:14.849Z,98059.50
2018-12-22T00:34:25.719Z,98069.98
2018-12-22T00:36:36.632Z,98064.34
2018-12-22T00:38:47.455Z,98068.24
2018-12-22T00:40:58.292Z,98066.20
2018-12-22T00:43:09.149Z,98065.01
2018-12-22T00:45:20.016Z,98063.32
2018-12-22T00:47:30.877Z,98060.25
2018-12-22T00:49:41.712Z,98060.99
2018-12-22T00:51:52.567Z,98066.75
2018-12-22T00:54:03.398Z,98061.83
2018-12-22T00:56:14.223Z,98056.55
2018-12-22T00:58:30.677Z,98058.28
2018-12-22T01:00:37.896Z,98058.39
2018-12-22T01:02:48.724Z,98061.55
2018-12-22T01:04:59.581Z,98061.77
2018-12-22T01:07:10.429Z,98060.55
2018-12-22T01:09:21.317Z,98062.69
2018-12-22T01:11:32.134Z,98069.10
2018-12-22T01:13:42.984Z,98076.98
2018-12-22T01:15:53.966Z,98078.75
2018-12-22T01:18:04.835Z,98069.57
2018-12-22T01:20:15.669Z,98079.42
2018-12-22T01:22:26.497Z,98071.98
2018-12-22T01:24:37.364Z,98075.52
2018-12-22T01:26:48.197Z,98068.11
2018-12-22T01:28:59.051Z,98069.98
2018-12-22T01:31:09.873Z,98071.56
2018-12-22T01:33:20.722Z,98069.08
2018-12-22T01:35:31.559Z,98066.48
2018-12-22T01:37:42.384Z,98074.82
2018-12-22T01:39:53.269Z,98070.28
2018-12-22T01:42:04.128Z,98072.80
2018-12-22T01:44:14.987Z,98070.04
2018-12-22T01:46:25.871Z,98075.23
2018-12-22T01:48:36.717Z,98067.63
2018-12-22T01:50:47.709Z,98073.55
2018-12-22T01:52:58.540Z,98076.14
2018-12-22T01:55:09.387Z,98080.81
2018-12-22T01:57:20.201Z,98082.41
2018-12-22T01:59:31.018Z,98081.59
2018-12-22T02:01:41.964Z,98087.33
2018-12-22T02:03:52.799Z,98086.39
2018-12-22T02:06:03.780Z,98080.83
2018-12-22T02:08:14.682Z,98082.32
2018-12-22T02:10:25.519Z,98084.38
2018-12-22T02:12:36.359Z,98078.70
2018-12-22T02:14:47.207Z,98072.68
2018-12-22T02:16:58.036Z,98070.27
2018-12-22T02:19:08.886Z,98070.27
2018-12-22T02:21:19.723Z,98076.41
2018-12-22T02:23:30.579Z,98068.14
2018-12-22T02:25:41.454Z,98066.38
2018-12-22T02:27:52.280Z,98065.91
2018-12-22T02:30:05.076Z,98069.44
2018-12-22T02:32:18.340Z,98076.95
2018-12-22T02:34:28.769Z,98075.47
2018-12-22T02:36:39.594Z,98070.74
2018-12-22T02:38:50.471Z,98072.13
2018-12-22T02:41:01.305Z,98068.80
2018-12-22T02:43:12.964Z,98067.75
2018-12-22T02:45:23.803Z,98053.94
2018-12-22T02:47:34.652Z,98040.23
2018-12-22T02:49:45.485Z,98046.61
2018-12-22T02:51:56.324Z,98033.91
2018-12-22T02:54:07.192Z,98044.84
2018-12-22T02:56:18.045Z,98048.38
2018-12-22T02:58:28.889Z,98048.02
2018-12-22T03:00:39.708Z,98040.76
2018-12-22T03:02:50.562Z,98037.61
2018-12-22T03:05:01.489Z,98045.23
2018-12-22T03:07:12.344Z,98047.63
2018-12-22T03:09:23.260Z,98052.83
2018-12-22T03:11:34.117Z,98055.34
2018-12-22T03:13:45.182Z,98050.70
2018-12-22T03:15:56.015Z,98048.21
2018-12-22T03:18:06.999Z,98048.93
2018-12-22T03:20:17.815Z,98048.38
2018-12-22T03:22:28.662Z,98044.13
2018-12-22T03:24:39.472Z,98037.16
2018-12-22T03:26:50.283Z,98035.94
2018-12-22T03:29:01.238Z,98030.84
2018-12-22T03:31:12.067Z,98024.72
2018-12-22T03:33:23.001Z,98035.39
2018-12-22T03:35:33.961Z,98042.72
2018-12-22T03:37:44.788Z,98048.74
2018-12-22T03:39:55.648Z,98042.83
2018-12-22T03:42:06.610Z,98048.57
2018-12-22T03:44:17.458Z,98042.91
2018-12-22T03:46:28.313Z,98044.31
2018-12-22T03:48:39.172Z,98033.17
2018-12-22T03:50:49.996Z,98028.09
2018-12-22T03:53:00.825Z,98026.16
2018-12-22T03:55:11.678Z,98035.96
2018-12-22T03:57:22.553Z,98025.80
2018-12-22T03:59:33.381Z,98016.70
2018-12-22T04:01:44.247Z,98021.31
2018-12-22T04:03:55.072Z,98023.55
2018-12-22T04:06:05.922Z,98025.57
2018-12-22T04:08:16.734Z,98029.58
2018-12-22T04:10:27.598Z,98017.89
2018-12-22T04:12:38.455Z,98018.91
2018-12-22T04:14:49.281Z,98013.00
2018-12-22T04:17:00.189Z,98015.20
2018-12-22T04:19:11.075Z,98014.30
2018-12-22T04:21:21.901Z,98013.00
2018-12-22T04:23:32.737Z,98016.06
2018-12-22T04:25:43.694Z,98007.63
2018-12-22T04:27:54.505Z,98003.27
2018-12-22T04:30:05.357Z,98007.99
2018-12-22T04:32:16.289Z,98007.41
2018-12-22T04:34:27.141Z,98020.79
2018-12-22T04:36:38.083Z,98021.15
2018-12-22T04:38:48.913Z,98028.94
2018-12-22T04:40:59.764Z,98027.17
2018-12-22T04:43:10.580Z,98026.16
2018-12-22T04:45:21.414Z,98012.25
2018-12-22T04:47:32.385Z,98011.14
2018-12-22T04:49:43.216Z,98020.98
2018-12-22T04:51:54.095Z,98024.95
2018-12-22T04:54:05.046Z,98016.25
2018-12-22T04:56:15.996Z,98023.58
2018-12-22T04:58:26.829Z,98031.44
2018-12-22T05:00:37.693Z,98024.30
2018-12-22T05:02:48.564Z,98018.66
2018-12-22T05:04:59.392Z,98023.20
2018-12-22T05:07:10.228Z,98021.78
2018-12-22T05:09:21.089Z,98020.37
2018-12-22T05:11:31.936Z,98032.63
2018-12-22T05:13:42.750Z,98036.22
2018-12-22T05:15:53.613Z,98030.72
2018-12-22T05:18:04.464Z,98034.19
2018-12-22T05:20:15.525Z,98040.56
2018-12-22T05:22:26.494Z,98045.77
2018-12-22T05:24:37.322Z,98045.85
2018-12-22T05:26:48.177Z,98048.05
2018-12-22T05:28:59.012Z,98047.70
2018-12-22T05:31:09.860Z,98050.19
2018-12-22T05:33:20.699Z,98054.55
2018-12-22T05:35:31.553Z,98060.86
2018-12-22T05:37:42.431Z,98057.43
2018-12-22T05:39:53.262Z,98060.31
2018-12-22T05:42:04.111Z,98064.37
2018-12-22T05:44:14.940Z,98071.34
2018-12-22T05:46:25.783Z,98058.89
2018-12-22T05:48:36.651Z,98059.25
2018-12-22T05:50:47.493Z,98073.11
2018-12-22T05:52:58.345Z,98070.76
2018-12-22T05:55:09.171Z,98070.02
2018-12-22T05:57:19.999Z,98072.42
2018-12-22T05:59:30.832Z,98065.06
2018-12-22T06:01:41.684Z,98085.77
2018-12-22T06:03:52.529Z,98078.26
2018-12-22T06:06:03.348Z,98077.20
2018-12-22T06:08:14.180Z,98083.43
2018-12-22T06:10:25.201Z,98087.37
2018-12-22T06:12:36.168Z,98088.80
2018-12-22T06:14:46.991Z,98109.09
2018-12-22T06:16:57.819Z,98100.94
2018-12-22T06:19:08.684Z,98115.12
2018-12-22T06:21:19.552Z,98126.74
2018-12-22T06:23:30.396Z,98128.87
2018-12-22T06:25:41.294Z,98139.63
2018-12-22T06:27:52.133Z,98144.38
2018-12-22T06:30:09.121Z,98159.25
2018-12-22T06:32:16.682Z,98147.41
2018-12-22T06:34:27.520Z,98152.79
2018-12-22T06:36:38.359Z,98156.34
2018-12-22T06:38:49.193Z,98158.77
2018-12-22T06:41:00.045Z,98169.53
2018-12-22T06:43:10.874Z,98175.84
2018-12-22T06:45:21.775Z,98177.44
2018-12-22T06:47:32.601Z,98191.36
2018-12-22T06:49:43.440Z,98186.42
2018-12-22T06:51:54.308Z,98192.20
2018-12-22T06:54:05.192Z,98197.20
2018-12-22T06:56:16.181Z,98198.69
2018-12-22T06:58:27.018Z,98203.23
2018-12-22T07:00:37.907Z,98204.41
2018-12-22T07:02:48.743Z,98206.36
2018-12-22T07:04:59.586Z,98214.23
2018-12-22T07:07:10.411Z,98213.29
2018-12-22T07:09:21.293Z,98202.37
2018-12-22T07:11:32.154Z,98198.19
2018-12-22T07:13:43.009Z,98202.91
2018-12-22T07:15:53.864Z,98208.28
2018-12-22T07:18:04.745Z,98206.34
2018-12-22T07:20:15.597Z,98206.61
2018-12-22T07:22:26.459Z,98212.64
2018-12-22T07:24:37.291Z,98225.52
2018-12-22T07:26:48.169Z,98233.94
2018-12-22T07:28:59.021Z,98243.42
2018-12-22T07:31:09.857Z,98245.72
2018-12-22T07:33:20.749Z,98254.98
2018-12-22T07:35:31.600Z,98260.93
2018-12-22T07:37:42.454Z,98269.44
2018-12-22T07:39:53.321Z,98265.28
2018-12-22T07:42:04.177Z,98281.13
2018-12-22T07:44:15.036Z,98279.46
2018-12-22T07:46:25.969Z,98291.50
2018-12-22T07:48:36.842Z,98296.70
2018-12-22T07:50:47.784Z,98304.28
2018-12-22T07:52:58.633Z,98312.84
2018-12-22T07:55:09.521Z,98330.97
2018-12-22T07:57:20.360Z,98319.47
2018-12-22T07:59:31.229Z,98314.11
2018-12-22T08:01:42.080Z,98315.17
2018-12-22T08:03:52.958Z,98309.13
2018-12-22T08:06:03.823Z,98312.08
2018-12-22T08:08:14.676Z,98324.48
2018-12-22T08:10:25.534Z,98329.90
2018-12-22T08:12:36.403Z,98326.47
2018-12-22T08:14:47.274Z,98332.02
2018-12-22T08:16:58.221Z,98327.36
2018-12-22T08:19:09.131Z,98334.00
2018-12-22T08:21:20.007Z,98324.40
2018-12-22T08:23:30.896Z,98341.66
2018-12-22T08:25:42.732Z,98340.37
2018-12-22T08:27:53.600Z,98345.55
2018-12-22T08:30:06.748Z,98334.34
2018-12-22T08:32:17.777Z,98338.54
2018-12-22T08:34:28.624Z,98335.08
2018-12-22T08:36:39.490Z,98332.80
2018-12-22T08:38:50.361Z,98332.89
2018-12-22T08:41:01.262Z,98343.77
2018-12-22T08:43:12.118Z,98352.22
2018-12-22T08:45:23.016Z,98362.34
2018-12-22T08:47:33.891Z,98360.44
2018-12-22T08:49:44.968Z,98362.47
2018-12-22T08:51:55.896Z,98381.14
2018-12-22T08:54:06.796Z,98376.72
2018-12-22T08:56:17.689Z,98379.15
2018-12-22T08:58:28.543Z,98392.69
2018-12-22T09:00:39.429Z,98396.55
2018-12-22T09:02:50.260Z,98400.48
2018-12-22T09:05:01.141Z,98413.03
2018-12-22T09:07:12.006Z,98420.36
2018-12-22T09:09:22.910Z,98422.78
2018-12-22T09:11:33.860Z,98424.58
2018-12-22T09:13:44.725Z,98431.08
2018-12-22T09:15:55.578Z,98431.27
2018-12-22T09:18:06.492Z,98430.51
2018-12-22T09:20:17.388Z,98443.02
2018-12-22T09:22:28.250Z,98435.34
2018-12-22T09:24:39.125Z,98436.63
2018-12-22T09:26:49.998Z,98440.63
2018-12-22T09:29:00.833Z,98454.81
2018-12-22T09:31:11.692Z,98463.37
2018-12-22T09:33:22.590Z,98477.34
2018-12-22T09:35:33.449Z,98472.22
2018-12-22T09:37:44.295Z,98471.28
2018-12-22T09:39:55.164Z,98480.12
2018-12-22T09:42:06.021Z,98476.77
2018-12-22T09:44:16.884Z,98478.36
2018-12-22T09:46:27.739Z,98484.71
2018-12-22T09:48:38.645Z,98492.03
2018-12-22T09:50:49.509Z,98496.65
2018-12-22T09:53:00.436Z,98508.80
2018-12-22T09:55:11.369Z,98507.66
2018-12-22T09:57:22.256Z,98498.20
2018-12-22T09:59:33.131Z,98511.55
2018-12-22T10:01:43.998Z,98510.55
2018-12-22T10:03:55.201Z,98515.19
2018-12-22T10:06:06.142Z,98513.52
2018-12-22T10:08:17.136Z,98521.83
2018-12-22T10:10:28.009Z,98517.27
2018-12-22T10:12:38.851Z,98517.88
2018-12-22T10:14:49.705Z,98516.95
2018-12-22T10:17:00.585Z,98517.31
2018-12-22T10:19:11.470Z,98513.83
2018-12-22T10:21:22.295Z,98517.16
2018-12-22T10:23:33.162Z,98525.31
2018-12-22T10:25:44.050Z,98528.47
2018-12-22T10:27:54.918Z,98522.09
2018-12-22T10:30:08.215Z,98518.25
2018-12-22T10:32:19.054Z,98522.37
2018-12-22T10:34:29.962Z,98526.38
2018-12-22T10:36:40.839Z,98518.12
2018-12-22T10:38:51.695Z,98517.13
2018-12-22T10:41:03.368Z,98517.34
2018-12-22T10:43:14.238Z,98516.04
2018-12-22T10:45:25.123Z,98516.64
2018-12-22T10:47:35.976Z,98519.98
2018-12-22T10:49:46.848Z,98524.08
2018-12-22T10:51:57.763Z,98523.75
2018-12-22T10:54:08.598Z,98534.27
2018-12-22T10:56:19.478Z,98529.91
2018-12-22T10:58:30.328Z,98530.28
2018-12-22T11:00:41.165Z,98521.95
2018-12-22T11:02:52.066Z,98507.66
2018-12-22T11:05:05.477Z,98514.55
2018-12-22T11:07:16.313Z,98518.45
2018-12-22T11:09:27.176Z,98509.02
2018-12-22T11:11:38.059Z,98517.08
2018-12-22T11:13:48.917Z,98521.25
2018-12-22T11:15:59.792Z,98534.05
2018-12-22T11:18:10.681Z,98526.21
2018-12-22T11:20:21.567Z,98530.23
2018-12-22T11:22:32.436Z,98519.91
2018-12-22T11:24:43.307Z,98519.77
2018-12-22T11:26:54.217Z,98514.91
2018-12-22T11:29:05.112Z,98520.26
2018-12-22T11:31:15.950Z,98499.84
2018-12-22T11:33:26.870Z,98509.46
2018-12-22T11:35:37.738Z,98508.53
2018-12-22T11:37:48.648Z,98528.05
2018-12-22T11:39:59.519Z,98510.44
2018-12-22T11:42:10.370Z,98520.66
2018-12-22T11:44:21.229Z,98520.98
2018-12-22T11:46:32.114Z,98523.58
2018-12-22T11:48:43.926Z,98538.07
2018-12-22T11:50:54.793Z,98540.85
2018-12-22T11:53:05.677Z,98558.87
2018-12-22T11:55:16.552Z,98570.25
2018-12-22T11:57:27.461Z,98550.27
2018-12-22T11:59:38.470Z,98552.67
2018-12-22T12:01:49.478Z,98551.05
2018-12-22T12:04:00.347Z,98536.72
2018-12-22T12:06:11.201Z,98539.17
2018-12-22T12:08:22.090Z,98538.70
2018-12-22T12:10:32.953Z,98537.81
2018-12-22T12:12:43.784Z,98539.47
2018-12-22T12:14:54.678Z,98535.80
2018-12-22T12:17:06.465Z,98540.25
2018-12-22T12:19:17.375Z,98541.75
2018-12-22T12:21:28.225Z,98540.92
2018-12-22T12:23:39.097Z,98559.77
2018-12-22T12:25:49.949Z,98567.40
2018-12-22T12:28:00.844Z,98572.03
2018-12-22T12:30:11.697Z,98570.52
2018-12-22T12:32:22.533Z,98573.06
2018-12-22T12:34:34.256Z,98575.66
2018-12-22T12:36:45.104Z,98567.56
2018-12-22T12:38:55.986Z,98571.30
2018-12-22T12:41:06.855Z,98573.78
2018-12-22T12:43:17.742Z,98580.06
2018-12-22T12:45:28.609Z,98589.50
2018-12-22T12:47:41.182Z,98586.70
2018-12-22T12:49:52.101Z,98591.94
2018-12-22T12:52:04.018Z,98589.34
2018-12-22T12:54:14.901Z,98602.69
2018-12-22T12:56:26.077Z,98605.98
2018-12-22T12:58:36.949Z,98589.89
2018-12-22T13:00:47.862Z,98604.99
2018-12-22T13:02:58.710Z,98612.13
2018-12-22T13:05:09.604Z,98612.70
2018-12-22T13:07:20.483Z,98606.98
2018-12-22T13:09:31.352Z,98620.05
2018-12-22T13:11:42.218Z,98621.05
2018-12-22T13:13:53.098Z,98624.20
2018-12-22T13:16:03.958Z,98616.72
2018-12-22T13:18:14.796Z,98619.69
2018-12-22T13:20:27.080Z,98620.19
2018-12-22T13:22:37.947Z,98621.17
2018-12-22T13:24:48.769Z,98633.06
2018-12-22T13:26:59.655Z,98628.67
2018-12-22T13:29:10.516Z,98619.95
2018-12-22T13:31:21.384Z,98629.10
2018-12-22T13:33:32.570Z,98629.66
2018-12-22T13:35:43.578Z,98624.93
2018-12-22T13:37:54.449Z,98619.80
2018-12-22T13:40:09.377Z,98599.05
2018-12-22T13:42:20.218Z,98604.17
2018-12-22T13:44:31.092Z,98618.59
2018-12-22T13:46:41.960Z,98636.41
2018-12-22T13:48:52.995Z,98636.19
2018-12-22T13:51:04.188Z,98636.89
2018-12-22T13:53:15.164Z,98645.05
2018-12-22T13:55:26.127Z,98650.91
2018-12-22T13:57:41.516Z,98646.95
2018-12-22T13:59:52.337Z,98642.52
2018-12-22T14:02:03.254Z,98647.48
2018-12-22T14:04:14.223Z,98649.45
2018-12-22T14:06:25.309Z,98659.13
2018-12-22T14:08:36.153Z,98658.09
2018-12-22T14:10:47.030Z,98662.13
2018-12-22T14:12:57.894Z,98670.37
2018-12-22T14:15:13.393Z,98669.99
2018-12-22T14:17:24.478Z,98676.77
2018-12-22T14:19:35.338Z,98665.50
2018-12-22T14:21:46.319Z,98665.95
2018-12-22T14:24:03.080Z,98671.29
2018-12-22T14:26:13.930Z,98665.78
2018-12-22T14:28:24.833Z,98666.92
2018-12-22T14:30:35.701Z,98669.47
2018-12-22T14:32:46.529Z,98677.47
2018-12-22T14:34:57.446Z,98667.56
2018-12-22T14:37:08.297Z,98666.25
2018-12-22T14:39:19.197Z,98668.20
2018-12-22T14:41:30.045Z,98666.25
2018-12-22T14:43:40.934Z,98670.29
2018-12-22T14:45:51.837Z,98679.48
2018-12-22T14:48:02.724Z,98681.61
2018-12-22T14:50:13.612Z,98681.92
2018-12-22T14:52:24.468Z,98683.59
2018-12-22T14:54:35.340Z,98694.44
2018-12-22T14:56:46.229Z,98698.05
2018-12-22T14:58:57.084Z,98697.64
2018-12-22T15:01:07.955Z,98697.13
2018-12-22T15:03:18.825Z,98699.10
2018-12-22T15:05:29.702Z,98701.02
2018-12-22T15:07:40.615Z,98704.07
2018-12-22T15:09:51.525Z,98705.42
2018-12-22T15:12:02.387Z,98709.89
2018-12-22T15:14:13.255Z,98711.08
2018-12-22T15:16:24.157Z,98711.80
2018-12-22T15:18:35.206Z,98716.38
2018-12-22T15:20:46.118Z,98720.99
2018-12-22T15:22:57.719Z,98727.02
2018-12-22T15:25:08.568Z,98717.51
2018-12-22T15:27:19.430Z,98737.80
2018-12-22T15:29:30.301Z,98729.70
2018-12-22T15:31:41.188Z,98741.75
2018-12-22T15:33:52.066Z,98741.38
2018-12-22T15:36:03.084Z,98749.39
2018-12-22T15:38:13.938Z,98746.48
2018-12-22T15:40:24.801Z,98750.83
2018-12-22T15:42:35.768Z,98757.87
2018-12-22T15:44:46.634Z,98752.13
2018-12-22T15:46:57.519Z,98756.02
2018-12-22T15:49:09.033Z,98759.59
2018-12-22T15:51:19.879Z,98771.47
2018-12-22T15:53:30.729Z,98777.34
2018-12-22T15:55:41.589Z,98776.57
2018-12-22T15:57:52.502Z,98783.74
2018-12-22T16:00:08.912Z,98778.09
2018-12-22T16:02:19.810Z,98775.13
2018-12-22T16:04:30.678Z,98775.44
2018-12-22T16:06:41.521Z,98777.11
2018-12-22T16:08:52.396Z,98787.11
2018-12-22T16:11:03.257Z,98796.55
2018-12-22T16:13:14.149Z,98787.30
2018-12-22T16:15:26.068Z,98795.24
2018-12-22T16:17:36.941Z,98798.27
2018-12-22T16:19:47.852Z,98795.75
2018-12-22T16:21:58.721Z,98790.66
2018-12-22T16:24:09.601Z,98792.22
2018-12-22T16:26:20.485Z,98790.55
2018-12-22T16:28:31.386Z,98797.16
2018-12-22T16:30:45.277Z,98803.56
2018-12-22T16:33:01.521Z,98811.66
2018-12-22T16:35:09.071Z,98810.13
2018-12-22T16:37:19.934Z,98820.86
2018-12-22T16:39:30.846Z,98821.97
2018-12-22T16:41:41.719Z,98821.13
2018-12-22T16:43:52.586Z,98838.11
2018-12-22T16:46:03.470Z,98844.67
2018-12-22T16:48:14.316Z,98842.54
2018-12-22T16:50:26.708Z,98834.22
2018-12-22T16:52:38.941Z,98830.62
2018-12-22T16:54:50.096Z,98836.65
2018-12-22T16:57:00.966Z,98837.56
2018-12-22T16:59:11.796Z,98836.86
2018-12-22T17:01:26.333Z,98830.38
2018-12-22T17:03:37.180Z,98832.64
2018-12-22T17:05:48.030Z,98834.53
2018-12-22T17:07:58.865Z,98837.25
2018-12-22T17:10:09.705Z,98840.76
2018-12-22T17:12:20.612Z,98839.00
2018-12-22T17:14:31.437Z,98835.58
2018-12-22T17:16:42.329Z,98833.28
2018-12-22T17:18:53.197Z,98839.45
2018-12-22T17:21:08.006Z,98839.45
2018-12-22T17:23:27.785Z,98848.11
2018-12-22T17:25:40.012Z,98850.78
2018-12-22T17:27:50.864Z,98857.13
2018-12-22T17:30:01.998Z,98860.10
2018-12-22T17:32:13.790Z,98859.27
2018-12-22T17:34:24.629Z,98864.83
2018-12-22T17:36:35.629Z,98864.83
2018-12-22T17:38:46.586Z,98866.91
2018-12-22T17:40:57.687Z,98877.66
2018-12-22T17:43:08.552Z,98879.33
2018-12-22T17:45:19.455Z,98878.32
2018-12-22T17:47:30.361Z,98876.86
2018-12-22T17:49:41.216Z,98879.53
2018-12-22T17:51:52.112Z,98879.53
2018-12-22T17:54:02.989Z,98875.44
2018-12-22T17:56:13.855Z,98874.55
2018-12-22T17:58:24.713Z,98875.90
2018-12-22T18:00:35.591Z,98883.80
2018-12-22T18:02:46.498Z,98886.09
2018-12-22T18:04:57.410Z,98882.97
2018-12-22T18:07:08.269Z,98887.52
2018-12-22T18:09:19.126Z,98883.42
2018-12-22T18:11:29.979Z,98881.41
2018-12-22T18:13:40.868Z,98879.33
2018-12-22T18:15:51.839Z,98877.27
2018-12-22T18:18:02.782Z,98883.67
2018-12-22T18:20:13.660Z,98893.58
2018-12-22T18:22:24.518Z,98891.83
2018-12-22T18:24:35.389Z,98904.66
2018-12-22T18:26:46.257Z,98897.72
2018-12-22T18:28:57.136Z,98892.53
2018-12-22T18:31:08.010Z,98897.67
2018-12-22T18:33:18.869Z,98889.06
2018-12-22T18:35:29.729Z,98894.54
2018-12-22T18:37:40.710Z,98894.54
2018-12-22T18:39:51.615Z,98892.87
2018-12-22T18:42:02.610Z,98892.03
2018-12-22T18:44:14.313Z,98892.23
2018-12-22T18:46:25.230Z,98895.41
2018-12-22T18:48:36.122Z,98895.00
2018-12-22T18:50:46.987Z,98898.13
2018-12-22T18:52:57.866Z,98891.66
2018-12-22T18:55:08.952Z,98897.34
2018-12-22T18:57:19.774Z,98905.24
2018-12-22T18:59:30.638Z,98902.14
2018-12-22T19:01:41.497Z,98905.24
2018-12-22T19:03:52.390Z,98905.24
2018-12-22T19:06:03.339Z,98907.00
2018-12-22T19:08:14.461Z,98909.92
2018-12-22T19:10:29.128Z,98908.83
2018-12-22T19:12:39.997Z,98904.23
2018-12-22T19:14:50.790Z,98916.32
2018-12-22T19:17:01.682Z,98909.84
2018-12-22T19:19:12.642Z,98904.98
2018-12-22T19:21:23.505Z,98907.53
2018-12-22T19:23:34.381Z,98914.06
2018-12-22T19:25:45.367Z,98908.75
2018-12-22T19:27:56.216Z,98918.61
2018-12-22T19:30:07.829Z,98923.80
2018-12-22T19:32:19.266Z,98922.09
2018-12-22T19:34:30.103Z,98929.86
2018-12-22T19:36:40.976Z,98937.89
2018-12-22T19:38:51.834Z,98929.23
2018-12-22T19:41:02.725Z,98936.22
2018-12-22T19:43:13.565Z,98941.34
2018-12-22T19:45:24.482Z,98938.93
2018-12-22T19:47:35.370Z,98948.41
2018-12-22T19:49:46.222Z,98949.71
2018-12-22T19:51:57.101Z,98943.86
2018-12-22T19:54:08.064Z,98945.69
2018-12-22T19:56:18.928Z,98945.99
2018-12-22T19:58:29.846Z,98937.34
2018-12-22T20:00:40.755Z,98941.60
2018-12-22T20:02:51.641Z,98942.36
2018-12-22T20:05:03.941Z,98941.02
2018-12-22T20:07:15.136Z,98949.55
2018-12-22T20:09:26.031Z,98952.14
2018-12-22T20:11:37.018Z,98947.50
2018-12-22T20:13:47.869Z,98966.55
2018-12-22T20:15:58.731Z,98978.14
2018-12-22T20:18:09.657Z,98966.94
2018-12-22T20:20:20.519Z,98973.92
2018-12-22T20:22:31.456Z,98980.09
2018-12-22T20:24:42.357Z,98975.49
2018-12-22T20:26:53.323Z,98969.52
2018-12-22T20:29:04.203Z,98960.78
2018-12-22T20:31:15.116Z,98960.91
2018-12-22T20:33:25.974Z,98994.13
2018-12-22T20:35:36.826Z,98991.59
2018-12-22T20:37:47.703Z,98991.05
2018-12-22T20:39:58.644Z,98991.66
2018-12-22T20:42:09.553Z,98995.94
2018-12-22T20:44:20.417Z,98993.42
2018-12-22T20:46:31.305Z,98995.55
2018-12-22T20:48:42.192Z,99000.66
2018-12-22T20:50:53.041Z,98998.14
2018-12-22T20:53:03.943Z,98989.20
2018-12-22T20:55:14.816Z,98989.77
2018-12-22T20:57:25.727Z,98993.78
2018-12-22T20:59:36.709Z,98989.89
2018-12-22T21:01:47.639Z,98988.22
2018-12-22T21:03:58.518Z,98982.66
2018-12-22T21:06:14.222Z,98991.19
2018-12-22T21:08:25.140Z,98996.49
2018-12-22T21:10:36.081Z,98994.48
2018-12-22T21:12:46.968Z,98998.06
2018-12-22T21:14:57.833Z,99002.52
2018-12-22T21:17:08.740Z,99000.81
2018-12-22T21:19:19.693Z,99006.28
2018-12-22T21:21:30.562Z,99001.48
2018-12-22T21:23:41.423Z,99010.09
2018-12-22T21:25:52.304Z,99003.16
2018-12-22T21:28:03.153Z,99007.89
2018-12-22T21:30:14.034Z,99003.05
2018-12-22T21:32:24.969Z,99008.61
2018-12-22T21:34:35.850Z,99021.52
2018-12-22T21:36:46.738Z,99014.32
2018-12-22T21:38:57.617Z,99026.86
2018-12-22T21:41:08.476Z,99027.01
2018-12-22T21:43:19.391Z,99024.80
2018-12-22T21:45:30.246Z,99019.36
2018-12-22T21:47:41.143Z,99021.68
2018-12-22T21:49:52.001Z,99030.86
2018-12-22T21:52:02.867Z,99038.52
2018-12-22T21:54:13.731Z,99042.78
2018-12-22T21:56:24.612Z,99042.78
2018-12-22T21:58:35.451Z,99046.59
2018-12-22T22:00:46.435Z,99041.87
2018-12-22T22:02:57.417Z,99037.41
2018-12-22T22:05:08.277Z,99047.27
2018-12-22T22:07:19.162Z,99042.67
2018-12-22T22:09:30.019Z,99040.12
2018-12-22T22:11:40.912Z,99036.19
2018-12-22T22:13:51.908Z,99040.00
2018-12-22T22:16:02.842Z,99038.78
2018-12-22T22:18:13.718Z,99031.13
2018-12-22T22:20:24.572Z,99035.13
2018-12-22T22:22:35.495Z,99024.05
2018-12-22T22:24:46.405Z,99032.39
2018-12-22T22:26:57.308Z,99031.16
2018-12-22T22:29:08.156Z,99030.38
2018-12-22T22:31:18.992Z,99029.45
2018-12-22T22:33:29.884Z,99033.30
2018-12-22T22:35:40.734Z,99036.08
2018-12-22T22:37:51.663Z,99034.63
2018-12-22T22:40:03.686Z,99037.22
2018-12-22T22:42:14.554Z,99041.22
2018-12-22T22:44:25.431Z,99043.47
2018-12-22T22:46:36.398Z,99041.27
2018-12-22T22:48:48.112Z,99040.69
2018-12-22T22:50:58.969Z,99042.56
2018-12-22T22:53:09.896Z,99039.85
2018-12-22T22:55:20.786Z,99040.58
2018-12-22T22:57:31.658Z,99043.55
2018-12-22T22:59:42.520Z,99054.82
2018-12-22T23:01:53.380Z,99044.23
2018-12-22T23:04:04.255Z,99043.43
2018-12-22T23:06:15.221Z,99039.55
2018-12-22T23:08:26.108Z,99044.27
2018-12-22T23:10:36.991Z,99051.27
2018-12-22T23:12:47.861Z,99047.13
2018-12-22T23:14:58.704Z,99060.84
2018-12-22T23:17:09.542Z,99060.12
2018-12-22T23:19:20.422Z,99069.64
2018-12-22T23:21:31.253Z,99069.86
2018-12-22T23:23:42.137Z,99069.30
2018-12-22T23:25:52.984Z,99074.86
2018-12-22T23:28:03.842Z,99075.77
2018-12-22T23:30:14.742Z,99081.67
2018-12-22T23:32:25.598Z,99094.09
2018-12-22T23:34:36.464Z,99094.17
2018-12-22T23:36:47.349Z,99095.01
2018-12-22T23:38:58.197Z,99078.24
2018-12-22T23:41:09.073Z,99108.19
2018-12-22T23:43:19.896Z,99104.30
2018-12-22T23:45:30.791Z,99097.67
2018-12-22T23:47:41.697Z,99103.58
2018-12-22T23:49:52.548Z,99103.42
2018-12-22T23:52:03.428Z,99104.72
2018-12-22T23:54:14.301Z,99094.81
2018-12-22T23:56:25.264Z,99106.12
2018-12-22T23:58:36.121Z,99102.31
